Time;durP1;ratioP1;P1;durP2;ratioP2;P2;SDS_P1;SDS_P2;PMS_P1;PMS_P2;Temp;Humidity;BMP_temperature;BMP_pressure;BME280_temperature;BME280_humidity;BME280_pressure;Samples;Min_cycle;Max_cycle;Signal;HPM_P1;HPM_P2
2022/10/02 00:00:19;;;;;;;18.30;4.97;;;12.50;99.90;;;;;;10387417;28;20217;-73
2022/10/02 00:05:34;;;;;;;17.73;4.40;;;12.60;99.90;;;;;;10393920;28;20208;-72
2022/10/02 00:10:43;;;;;;;11.83;3.77;;;12.70;99.90;;;;;;10386367;28;20229;-72
2022/10/02 00:15:45;;;;;;;17.23;4.07;;;12.80;99.90;;;;;;10397892;28;20263;-76
2022/10/02 00:21:11;;;;;;;15.07;4.27;;;12.80;99.90;;;;;;10397831;28;20229;-74
2022/10/02 00:26:29;;;;;;;13.20;3.80;;;12.90;99.90;;;;;;10372305;28;20756;-74
2022/10/02 00:31:34;;;;;;;16.10;3.73;;;12.90;99.90;;;;;;10385869;28;20233;-73
2022/10/02 00:36:44;;;;;;;16.60;3.80;;;12.90;99.90;;;;;;10391421;28;20685;-72
2022/10/02 00:42:12;;;;;;;13.13;3.40;;;12.90;99.90;;;;;;10383899;28;20217;-73
2022/10/02 00:47:22;;;;;;;13.80;3.43;;;13.00;99.90;;;;;;10383932;28;20709;-73
2022/10/02 00:52:43;;;;;;;10.00;3.20;;;13.00;99.90;;;;;;10386067;28;20279;-72
2022/10/02 00:58:11;;;;;;;15.43;3.67;;;13.00;99.90;;;;;;10409900;28;20227;-73
2022/10/02 01:03:22;;;;;;;13.83;3.60;;;13.00;99.90;;;;;;10383502;28;20228;-73
2022/10/02 01:08:23;;;;;;;15.73;3.40;;;13.00;99.90;;;;;;10381366;28;20240;-72
2022/10/02 01:13:24;;;;;;;13.97;2.60;;;13.00;99.90;;;;;;10384199;28;20247;-74
2022/10/02 01:18:26;;;;;;;13.17;3.30;;;13.00;99.90;;;;;;10380284;28;20235;-72
2022/10/02 01:23:59;;;;;;;16.43;3.37;;;13.00;99.90;;;;;;10389316;28;20239;-73
2022/10/02 01:28:59;;;;;;;15.10;3.53;;;12.90;99.90;;;;;;10355482;28;20225;-72
2022/10/02 01:34:00;;;;;;;12.10;3.00;;;12.90;99.90;;;;;;10390674;28;20228;-72
2022/10/02 01:39:01;;;;;;;16.50;3.13;;;12.90;99.90;;;;;;10388123;28;20561;-74
2022/10/02 01:44:05;;;;;;;11.97;3.03;;;13.00;99.90;;;;;;10382679;28;20231;-72
2022/10/02 01:49:41;;;;;;;16.07;3.30;;;13.00;99.90;;;;;;10390436;28;20228;-74
2022/10/02 01:55:05;;;;;;;11.87;2.90;;;13.00;99.90;;;;;;10376237;28;20267;-72
2022/10/02 02:00:16;;;;;;;10.50;2.90;;;13.10;99.90;;;;;;10389611;28;20287;-72
2022/10/02 02:05:41;;;;;;;10.93;2.60;;;13.10;99.90;;;;;;10392105;28;20216;-74
2022/10/02 02:10:55;;;;;;;9.37;2.80;;;13.10;99.90;;;;;;10397627;28;20217;-73
2022/10/02 02:16:07;;;;;;;9.17;2.60;;;13.10;99.90;;;;;;10394117;28;20216;-72
2022/10/02 02:21:23;;;;;;;9.60;2.57;;;13.00;99.90;;;;;;10397099;28;20704;-73
2022/10/02 02:26:26;;;;;;;12.60;2.50;;;13.00;99.90;;;;;;10392070;28;20332;-73
2022/10/02 02:31:36;;;;;;;16.17;3.43;;;13.00;99.90;;;;;;10391578;28;20680;-74
2022/10/02 02:36:41;;;;;;;10.10;3.00;;;13.00;99.90;;;;;;10393673;28;20213;-72
2022/10/02 02:41:50;;;;;;;8.83;2.53;;;13.00;99.90;;;;;;10400632;28;20315;-72
2022/10/02 02:47:02;;;;;;;15.07;2.80;;;13.00;99.90;;;;;;10386626;28;20233;-73
2022/10/02 02:52:08;;;;;;;10.37;2.70;;;13.00;99.90;;;;;;10395319;28;20229;-72
2022/10/02 02:57:10;;;;;;;14.33;2.33;;;13.10;99.90;;;;;;10406225;28;20600;-72
2022/10/02 03:02:11;;;;;;;11.57;2.63;;;13.10;99.90;;;;;;10402858;28;20216;-73
2022/10/02 03:07:16;;;;;;;12.23;2.53;;;13.00;99.90;;;;;;10386827;28;20229;-73
2022/10/02 03:12:25;;;;;;;12.33;3.23;;;13.00;99.90;;;;;;10394317;28;20229;-73
2022/10/02 03:17:50;;;;;;;11.97;2.93;;;13.00;99.90;;;;;;10390720;28;20704;-73
2022/10/02 03:23:07;;;;;;;13.80;3.00;;;13.00;99.90;;;;;;10400719;28;20223;-75
2022/10/02 03:28:16;;;;;;;11.93;2.80;;;13.00;99.90;;;;;;10387457;28;20221;-73
2022/10/02 03:33:16;;;;;;;10.30;3.13;;;13.00;99.90;;;;;;10390955;28;20232;-73
2022/10/02 03:38:20;;;;;;;14.10;3.20;;;13.00;99.90;;;;;;10386800;28;20239;-73
2022/10/02 03:43:22;;;;;;;10.13;3.03;;;13.00;99.90;;;;;;10389821;28;20220;-73
2022/10/02 03:48:23;;;;;;;9.87;2.77;;;13.10;99.90;;;;;;10384585;28;20228;-72
2022/10/02 03:53:41;;;;;;;10.33;3.40;;;13.10;99.90;;;;;;10385853;28;20225;-73
2022/10/02 03:58:47;;;;;;;8.40;3.37;;;13.20;99.90;;;;;;10391906;28;20691;-72
2022/10/02 04:03:54;;;;;;;12.73;3.53;;;13.10;99.90;;;;;;10390046;28;20274;-73
2022/10/02 04:09:08;;;;;;;12.43;3.30;;;13.10;99.90;;;;;;10383822;28;20241;-72
2022/10/02 04:14:33;;;;;;;12.87;3.73;;;13.10;99.90;;;;;;10388590;28;20806;-71
2022/10/02 04:19:45;;;;;;;14.00;3.87;;;13.10;99.90;;;;;;10400452;28;20242;-75
2022/10/02 04:24:53;;;;;;;11.37;4.10;;;13.10;99.90;;;;;;10385017;28;20221;-72
2022/10/02 04:30:06;;;;;;;13.70;3.83;;;13.10;99.90;;;;;;10383993;28;20225;-73
2022/10/02 04:35:24;;;;;;;12.30;4.33;;;13.10;99.90;;;;;;10388293;28;20240;-73
2022/10/02 04:40:31;;;;;;;11.87;4.33;;;13.10;99.90;;;;;;10382147;28;20228;-72
2022/10/02 04:46:02;;;;;;;13.93;4.37;;;13.00;99.90;;;;;;10385990;28;20209;-72
2022/10/02 04:51:37;;;;;;;11.20;4.43;;;13.00;99.90;;;;;;10391021;28;20255;-72
2022/10/02 04:57:26;;;;;;;13.90;4.20;;;13.00;99.90;;;;;;10395831;28;20256;-73
2022/10/02 05:02:32;;;;;;;11.63;4.27;;;13.00;99.90;;;;;;10380640;28;20255;-73
2022/10/02 05:07:50;;;;;;;22.57;4.70;;;13.00;99.90;;;;;;10383982;28;20235;-73
2022/10/02 05:13:22;;;;;;;15.27;3.97;;;13.00;99.90;;;;;;10383023;28;20237;-72
2022/10/02 05:18:38;;;;;;;17.27;4.40;;;13.00;99.90;;;;;;10385734;28;20220;-73
2022/10/02 05:23:55;;;;;;;12.80;4.47;;;13.00;99.90;;;;;;10386541;28;20277;-72
2022/10/02 05:29:15;;;;;;;14.17;4.20;;;13.00;99.90;;;;;;10403458;28;20663;-74
2022/10/02 05:34:53;;;;;;;19.23;5.10;;;13.00;99.90;;;;;;10392008;28;20221;-73
2022/10/02 05:40:15;;;;;;;15.93;4.07;;;13.00;99.90;;;;;;10390399;28;20224;-73
2022/10/02 05:45:26;;;;;;;14.03;4.60;;;13.00;99.90;;;;;;10391721;28;20220;-73
2022/10/02 05:50:33;;;;;;;13.33;4.50;;;13.00;99.90;;;;;;10393957;28;20627;-71
2022/10/02 05:55:39;;;;;;;17.33;4.33;;;13.10;99.90;;;;;;10392478;28;20303;-73
2022/10/02 06:00:48;;;;;;;14.90;5.27;;;13.00;99.90;;;;;;10391336;28;20595;-74
2022/10/02 06:06:01;;;;;;;15.67;4.87;;;13.00;99.90;;;;;;10394938;28;20224;-73
2022/10/02 06:11:10;;;;;;;11.00;4.70;;;13.00;99.90;;;;;;10394351;28;20235;-72
2022/10/02 06:16:22;;;;;;;11.27;4.57;;;13.10;99.90;;;;;;10396737;28;20217;-72
2022/10/02 06:21:31;;;;;;;13.47;4.73;;;13.00;99.90;;;;;;10395975;28;20247;-72
2022/10/02 06:26:39;;;;;;;22.53;4.97;;;13.10;99.90;;;;;;10404852;28;20229;-73
2022/10/02 06:32:04;;;;;;;11.57;4.20;;;13.10;99.90;;;;;;10388827;28;20229;-73
2022/10/02 06:37:36;;;;;;;14.53;4.60;;;13.20;99.90;;;;;;10387963;28;20229;-72
2022/10/02 06:42:49;;;;;;;15.00;4.30;;;13.20;99.90;;;;;;10399194;28;20251;-72
2022/10/02 06:48:23;;;;;;;11.17;3.80;;;13.20;99.90;;;;;;10406890;28;20217;-74
2022/10/02 06:53:42;;;;;;;11.40;4.27;;;13.30;99.90;;;;;;10390045;28;20696;-74
2022/10/02 06:59:20;;;;;;;11.73;4.13;;;13.30;99.90;;;;;;10402263;28;20324;-73
2022/10/02 07:04:34;;;;;;;14.03;4.00;;;13.30;99.90;;;;;;10389063;28;20228;-74
2022/10/02 07:10:02;;;;;;;9.50;3.93;;;13.40;99.90;;;;;;10387919;28;20371;-73
2022/10/02 07:15:27;;;;;;;11.83;3.67;;;13.40;99.90;;;;;;10385040;28;20236;-73
2022/10/02 07:20:32;;;;;;;10.47;3.90;;;13.40;99.90;;;;;;10393226;28;20247;-73
2022/10/02 07:25:36;;;;;;;9.53;3.93;;;13.40;99.90;;;;;;10381134;28;20299;-72
2022/10/02 07:30:49;;;;;;;10.33;3.80;;;13.40;99.90;;;;;;10401204;28;20239;-73
2022/10/02 07:36:01;;;;;;;8.53;3.70;;;13.50;99.90;;;;;;10395198;28;20723;-73
2022/10/02 07:41:17;;;;;;;9.87;3.50;;;13.50;99.90;;;;;;10383177;28;20730;-73
2022/10/02 07:46:42;;;;;;;8.30;3.37;;;13.60;99.90;;;;;;10390379;28;20244;-73
2022/10/02 07:51:58;;;;;;;11.97;3.37;;;13.50;99.90;;;;;;10389984;28;20319;-74
2022/10/02 07:57:21;;;;;;;10.90;3.77;;;13.50;99.90;;;;;;10383542;28;20719;-73
2022/10/02 08:02:35;;;;;;;10.03;3.43;;;13.50;99.90;;;;;;10370502;28;20218;-71
2022/10/02 08:07:35;;;;;;;8.93;3.23;;;13.60;99.90;;;;;;10387712;28;20726;-72
2022/10/02 08:13:14;;;;;;;8.07;3.47;;;13.60;99.90;;;;;;10391162;28;20236;-73
2022/10/02 08:18:31;;;;;;;7.30;3.10;;;13.60;99.90;;;;;;10370477;28;20216;-74
2022/10/02 08:23:58;;;;;;;7.20;3.07;;;13.70;99.90;;;;;;10386091;28;20217;-73
2022/10/02 08:29:04;;;;;;;3.97;2.60;;;13.70;99.90;;;;;;10381922;28;20655;-72
2022/10/02 08:34:32;;;;;;;4.73;2.67;;;13.80;99.90;;;;;;10389211;28;20224;-73
2022/10/02 08:39:40;;;;;;;6.10;2.40;;;13.80;99.90;;;;;;10390261;28;20209;-73
2022/10/02 08:45:09;;;;;;;2.77;1.70;;;13.90;99.90;;;;;;10392391;28;20712;-73
2022/10/02 08:50:29;;;;;;;4.07;2.07;;;14.00;99.90;;;;;;10392846;28;20212;-73
2022/10/02 08:56:04;;;;;;;5.87;2.30;;;14.10;99.90;;;;;;10384495;28;20742;-74
2022/10/02 09:01:40;;;;;;;3.37;2.03;;;14.20;99.90;;;;;;10394308;28;20228;-73
2022/10/02 09:07:29;;;;;;;4.20;1.57;;;14.10;99.90;;;;;;10398292;28;20233;-73
2022/10/02 09:12:44;;;;;;;4.40;2.17;;;14.00;99.90;;;;;;10333427;28;20695;-73
2022/10/02 09:18:17;;;;;;;4.27;2.50;;;14.00;99.90;;;;;;10397065;28;20755;-73
2022/10/02 09:23:55;;;;;;;3.60;1.70;;;13.90;99.90;;;;;;10393227;28;20470;-73
2022/10/02 09:29:15;;;;;;;5.43;1.63;;;13.90;99.90;;;;;;10406378;28;20313;-73
2022/10/02 09:34:46;;;;;;;4.97;1.90;;;13.90;99.90;;;;;;10396637;28;20271;-73
2022/10/02 09:40:05;;;;;;;5.13;2.57;;;14.10;99.90;;;;;;10396130;28;20225;-73
2022/10/02 09:45:42;;;;;;;2.63;1.50;;;14.30;99.90;;;;;;10395031;28;20229;-73
2022/10/02 09:51:20;;;;;;;3.93;1.40;;;14.40;99.90;;;;;;10397348;28;20568;-74
2022/10/02 09:56:39;;;;;;;3.47;2.20;;;14.40;99.90;;;;;;10398950;28;20224;-73
2022/10/02 10:02:06;;;;;;;3.27;2.00;;;14.30;99.90;;;;;;10397564;28;20216;-72
2022/10/02 10:07:21;;;;;;;2.00;1.37;;;14.20;99.90;;;;;;10394478;28;20489;-73
2022/10/02 10:12:33;;;;;;;3.30;1.50;;;14.20;99.90;;;;;;10392544;28;20217;-74
2022/10/02 10:17:54;;;;;;;4.40;2.40;;;14.20;99.90;;;;;;10401158;28;20291;-73
2022/10/02 10:23:44;;;;;;;2.57;1.50;;;14.10;99.90;;;;;;10395596;28;20213;-72
2022/10/02 10:29:08;;;;;;;3.30;1.20;;;14.10;99.90;;;;;;10393612;28;20236;-72
2022/10/02 10:34:09;;;;;;;2.50;1.37;;;14.10;99.90;;;;;;10394620;28;20224;-73
2022/10/02 10:39:25;;;;;;;1.73;1.10;;;14.10;99.90;;;;;;10392839;28;20679;-73
2022/10/02 10:44:55;;;;;;;2.13;0.93;;;14.20;99.90;;;;;;10407739;28;20258;-73
2022/10/02 10:50:33;;;;;;;3.50;1.20;;;14.60;99.90;;;;;;10384915;28;20596;-73
2022/10/02 10:56:13;;;;;;;1.90;1.10;;;14.70;99.90;;;;;;10391318;28;20692;-74
2022/10/02 11:01:36;;;;;;;1.73;1.10;;;14.80;99.90;;;;;;10386616;28;20217;-72
2022/10/02 11:06:55;;;;;;;1.30;1.20;;;14.90;99.90;;;;;;10388051;28;20241;-73
2022/10/02 11:12:37;;;;;;;3.53;1.30;;;15.00;99.90;;;;;;10393003;28;20220;-73
2022/10/02 11:18:29;;;;;;;2.53;1.17;;;15.10;99.90;;;;;;10389416;28;20212;-73
2022/10/02 11:24:00;;;;;;;3.03;0.83;;;15.30;99.90;;;;;;10281715;28;20997;-73
2022/10/02 11:29:19;;;;;;;1.10;1.00;;;15.30;99.90;;;;;;10385385;28;20213;-73
2022/10/02 11:34:49;;;;;;;1.23;1.00;;;15.30;99.90;;;;;;10385553;28;20220;-73
2022/10/02 11:40:15;;;;;;;2.03;1.00;;;15.40;99.90;;;;;;10383925;28;20213;-73
2022/10/02 11:45:42;;;;;;;1.53;0.93;;;15.30;99.90;;;;;;10387013;28;20275;-72
2022/10/02 11:51:09;;;;;;;1.03;0.80;;;15.20;99.90;;;;;;10387153;28;20652;-74
2022/10/02 11:56:55;;;;;;;2.10;0.70;;;15.20;99.90;;;;;;10385691;28;20479;-73
2022/10/02 12:02:14;;;;;;;2.63;0.90;;;15.20;99.90;;;;;;10383523;28;20565;-73
2022/10/02 12:07:21;;;;;;;1.27;0.80;;;15.20;99.90;;;;;;10391494;28;20267;-74
2022/10/02 12:12:37;;;;;;;0.90;0.60;;;15.20;99.90;;;;;;10396366;28;20303;-72
2022/10/02 12:17:43;;;;;;;2.13;1.57;;;15.30;99.90;;;;;;10383732;28;20219;-73
2022/10/02 12:28:53;;;;;;;2.03;1.50;;;15.30;99.90;;;;;;10395011;28;20260;-73
2022/10/02 12:34:22;;;;;;;1.23;1.10;;;15.40;99.90;;;;;;10390122;28;20231;-73
2022/10/02 12:39:35;;;;;;;0.93;0.90;;;15.40;99.90;;;;;;10388025;28;20217;-74
2022/10/02 12:45:03;;;;;;;1.20;1.10;;;15.50;99.90;;;;;;10401375;28;20220;-74
2022/10/02 12:50:22;;;;;;;1.57;1.17;;;15.60;99.90;;;;;;10394950;28;20558;-74
2022/10/02 12:56:00;;;;;;;1.20;0.70;;;15.50;99.90;;;;;;10400806;28;20290;-73
2022/10/02 13:01:22;;;;;;;1.80;1.30;;;15.60;99.90;;;;;;10382182;28;20648;-75
2022/10/02 13:06:42;;;;;;;1.53;1.10;;;15.70;99.90;;;;;;10387742;28;20371;-74
2022/10/02 13:12:04;;;;;;;1.37;1.00;;;15.60;99.90;;;;;;10385997;28;20235;-74
2022/10/02 13:17:23;;;;;;;1.43;1.03;;;15.50;99.90;;;;;;10383096;28;20279;-74
2022/10/02 13:22:55;;;;;;;1.27;0.80;;;15.60;99.90;;;;;;10381370;28;20217;-73
2022/10/02 13:28:01;;;;;;;2.47;1.00;;;15.80;99.90;;;;;;10381771;28;20218;-73
2022/10/02 13:33:11;;;;;;;2.20;1.27;;;15.80;99.90;;;;;;10389825;28;20227;-73
2022/10/02 13:38:43;;;;;;;2.73;1.17;;;15.90;99.90;;;;;;10385933;28;20216;-72
2022/10/02 13:44:03;;;;;;;1.27;0.90;;;15.90;99.90;;;;;;10386352;28;20244;-72
2022/10/02 13:49:18;;;;;;;2.83;1.13;;;15.80;99.90;;;;;;10403780;28;20225;-73
2022/10/02 13:55:01;;;;;;;2.90;1.30;;;15.60;99.90;;;;;;10388207;28;20224;-73
2022/10/02 14:00:22;;;;;;;1.90;1.07;;;15.50;99.90;;;;;;10270996;28;20704;-72
2022/10/02 14:05:57;;;;;;;3.03;1.10;;;15.40;99.90;;;;;;10380805;28;20204;-74
2022/10/02 14:11:19;;;;;;;1.77;1.67;;;15.40;99.90;;;;;;10396987;28;20308;-75
2022/10/02 14:16:38;;;;;;;2.17;1.20;;;15.20;99.90;;;;;;10397195;28;20299;-74
2022/10/02 14:21:50;;;;;;;1.30;1.00;;;15.20;99.90;;;;;;10386006;28;20221;-73
2022/10/02 14:27:18;;;;;;;1.73;1.20;;;15.10;99.90;;;;;;10394032;28;20691;-73
2022/10/02 14:32:32;;;;;;;2.33;1.50;;;14.90;99.90;;;;;;10398179;28;20225;-73
2022/10/02 14:37:44;;;;;;;2.53;1.53;;;14.90;99.90;;;;;;10391023;28;20219;-74
2022/10/02 14:42:48;;;;;;;1.17;1.07;;;14.90;99.90;;;;;;10398718;28;20759;-74
2022/10/02 14:48:02;;;;;;;3.33;1.30;;;14.80;99.90;;;;;;10412651;28;20224;-74
2022/10/02 14:53:41;;;;;;;1.77;1.40;;;14.80;99.90;;;;;;10394917;28;20227;-73
2022/10/02 14:58:45;;;;;;;2.17;1.60;;;14.70;99.90;;;;;;10401297;28;20680;-73
2022/10/02 15:04:03;;;;;;;3.33;1.50;;;14.60;99.90;;;;;;10387549;28;20233;-74
2022/10/02 15:09:57;;;;;;;3.00;1.43;;;14.60;99.90;;;;;;10384524;28;20604;-74
2022/10/02 15:15:12;;;;;;;2.47;1.50;;;14.50;99.90;;;;;;10327787;28;20268;-74
2022/10/02 15:20:22;;;;;;;1.67;1.17;;;14.50;99.90;;;;;;10384587;28;20219;-75
2022/10/02 15:25:48;;;;;;;2.53;1.40;;;14.40;99.90;;;;;;10385462;28;20195;-73
2022/10/02 15:30:59;;;;;;;2.20;1.40;;;14.40;99.90;;;;;;10390567;28;20706;-73
2022/10/02 15:36:07;;;;;;;2.60;1.23;;;14.40;99.90;;;;;;10384169;28;20234;-73
2022/10/02 15:41:32;;;;;;;2.50;1.47;;;14.40;99.90;;;;;;10391761;28;20232;-73
2022/10/02 15:46:48;;;;;;;2.97;1.70;;;14.40;99.90;;;;;;10388895;28;20219;-73
2022/10/02 15:52:15;;;;;;;2.03;1.60;;;14.40;99.90;;;;;;10385712;28;20228;-73
2022/10/02 15:57:53;;;;;;;2.10;1.70;;;14.40;99.90;;;;;;10386555;28;20631;-73
2022/10/02 16:03:00;;;;;;;2.10;1.90;;;14.40;99.90;;;;;;10350597;28;20227;-72
2022/10/02 16:08:09;;;;;;;2.60;1.90;;;14.30;99.90;;;;;;10401335;28;20227;-72
2022/10/02 16:13:12;;;;;;;3.90;1.97;;;14.30;99.90;;;;;;10390656;28;20235;-73
2022/10/02 16:18:40;;;;;;;2.00;1.80;;;14.20;99.90;;;;;;10393805;28;20239;-74
2022/10/02 16:24:06;;;;;;;2.77;1.80;;;14.10;99.90;;;;;;10383436;28;20259;-73
2022/10/02 16:29:28;;;;;;;3.63;2.03;;;14.00;99.90;;;;;;10389899;28;20250;-73
2022/10/02 16:34:49;;;;;;;3.10;2.10;;;14.00;99.90;;;;;;10404378;28;20943;-72
2022/10/02 16:39:56;;;;;;;3.40;2.37;;;13.90;99.90;;;;;;10382139;28;20307;-72
2022/10/02 16:45:15;;;;;;;3.27;2.93;;;13.80;99.90;;;;;;10411628;28;20215;-75
2022/10/02 16:50:28;;;;;;;5.63;3.83;;;13.70;99.90;;;;;;10384745;28;20584;-73
2022/10/02 16:55:42;;;;;;;5.00;4.10;;;13.70;99.90;;;;;;10381135;28;20323;-73
2022/10/02 17:00:52;;;;;;;5.07;4.57;;;13.60;99.90;;;;;;10384872;28;20711;-73
2022/10/02 17:05:58;;;;;;;5.37;3.83;;;13.60;99.90;;;;;;10387538;28;20234;-73
2022/10/02 17:11:15;;;;;;;3.63;3.33;;;13.50;99.90;;;;;;10398938;28;20628;-73
2022/10/02 17:16:26;;;;;;;4.07;3.77;;;13.40;99.90;;;;;;10383570;28;20282;-73
2022/10/02 17:21:44;;;;;;;5.20;4.67;;;13.30;99.90;;;;;;10389458;28;20222;-73
2022/10/02 17:27:13;;;;;;;4.20;3.80;;;13.30;99.90;;;;;;10396112;28;20219;-74
2022/10/02 17:32:50;;;;;;;4.97;3.83;;;13.20;99.90;;;;;;10392123;28;20248;-74
2022/10/02 17:38:17;;;;;;;5.57;5.07;;;13.10;99.90;;;;;;10388387;28;20278;-74
2022/10/02 17:43:49;;;;;;;8.53;5.90;;;13.00;99.90;;;;;;10395050;28;20224;-73
2022/10/02 17:49:16;;;;;;;6.33;5.67;;;12.90;99.90;;;;;;10392352;28;20308;-73
2022/10/02 18:00:20;;;;;;;7.57;6.77;;;12.60;99.90;;;;;;10385854;28;20683;-73
2022/10/02 18:05:41;;;;;;;7.00;6.30;;;12.60;99.90;;;;;;10397560;28;20188;-73
2022/10/02 18:11:17;;;;;;;8.20;6.33;;;12.50;99.90;;;;;;10391228;28;20245;-73
2022/10/02 18:16:34;;;;;;;7.00;6.30;;;12.40;99.90;;;;;;10382925;28;20227;-73
2022/10/02 18:21:42;;;;;;;7.40;6.67;;;12.20;99.90;;;;;;10388370;28;20260;-73
2022/10/02 18:27:02;;;;;;;11.53;7.87;;;12.20;99.90;;;;;;10389155;28;20228;-73
2022/10/02 18:32:20;;;;;;;13.40;9.60;;;12.20;99.90;;;;;;10385712;28;20220;-73
2022/10/02 18:37:50;;;;;;;9.50;8.50;;;12.30;99.90;;;;;;10401782;28;20212;-73
2022/10/02 18:43:17;;;;;;;9.57;8.40;;;12.20;99.90;;;;;;10399750;28;20227;-74
2022/10/02 18:48:44;;;;;;;9.53;8.53;;;12.00;99.90;;;;;;10396150;28;20220;-73
2022/10/02 18:53:56;;;;;;;10.17;9.17;;;11.90;99.90;;;;;;10390172;28;20316;-73
2022/10/02 18:59:11;;;;;;;11.30;9.33;;;11.80;99.90;;;;;;10386824;28;20244;-74
2022/10/02 19:04:27;;;;;;;13.13;10.70;;;11.80;99.90;;;;;;10386620;28;20763;-73
2022/10/02 19:09:29;;;;;;;10.77;9.67;;;11.70;99.90;;;;;;10393866;28;20704;-72
2022/10/02 19:14:35;;;;;;;16.07;12.67;;;11.70;99.90;;;;;;10392643;28;20621;-74
2022/10/02 19:19:36;;;;;;;16.97;15.40;;;11.50;99.90;;;;;;10397648;28;20213;-74
2022/10/02 19:24:40;;;;;;;17.50;15.80;;;11.50;99.90;;;;;;10389991;28;20646;-74
2022/10/02 19:29:55;;;;;;;18.47;16.67;;;11.40;99.90;;;;;;10391537;28;20644;-73
2022/10/02 19:35:17;;;;;;;20.07;17.83;;;11.40;99.90;;;;;;10400797;28;20587;-73
2022/10/02 19:40:25;;;;;;;19.27;17.17;;;11.30;99.90;;;;;;10388387;28;20220;-73
2022/10/02 19:45:28;;;;;;;19.40;15.23;;;11.30;99.90;;;;;;10387153;28;20213;-73
2022/10/02 19:50:45;;;;;;;20.30;17.33;;;11.30;99.90;;;;;;10383968;28;20217;-74
2022/10/02 19:55:55;;;;;;;18.63;16.63;;;11.20;99.90;;;;;;10390105;28;20235;-74
2022/10/02 20:00:56;;;;;;;17.93;15.67;;;11.10;99.90;;;;;;10385662;28;20627;-72
2022/10/02 20:06:02;;;;;;;14.63;12.93;;;11.20;99.90;;;;;;10384167;28;20314;-73
2022/10/02 20:11:13;;;;;;;15.13;13.53;;;11.10;99.90;;;;;;10396173;28;20298;-74
2022/10/02 20:21:56;;;;;;;15.33;13.83;;;10.90;99.90;;;;;;10388450;28;20227;-73
2022/10/02 20:27:04;;;;;;;16.70;12.90;;;10.90;99.90;;;;;;10382948;28;20668;-73
2022/10/02 20:32:12;;;;;;;12.80;11.60;;;10.90;99.90;;;;;;10401293;28;20641;-73
2022/10/02 20:37:21;;;;;;;15.33;12.00;;;10.90;99.90;;;;;;10367295;28;20688;-72
2022/10/02 20:42:34;;;;;;;19.80;15.63;;;10.90;99.90;;;;;;10408585;28;20219;-74
2022/10/02 20:47:43;;;;;;;18.20;16.03;;;11.00;99.90;;;;;;10409206;28;20608;-73
2022/10/02 20:53:14;;;;;;;16.30;14.60;;;11.10;99.90;;;;;;10388701;28;20228;-73
2022/10/02 20:58:36;;;;;;;16.07;14.47;;;11.10;99.90;;;;;;10400461;28;20221;-73
2022/10/02 21:03:52;;;;;;;17.60;15.80;;;11.10;99.90;;;;;;10391269;28;20239;-73
2022/10/02 21:09:24;;;;;;;16.13;13.67;;;11.10;99.90;;;;;;10396029;28;20254;-73
2022/10/02 21:14:47;;;;;;;17.17;15.43;;;11.10;99.90;;;;;;10389347;28;20418;-73
2022/10/02 21:20:22;;;;;;;21.87;17.20;;;11.10;99.90;;;;;;10393126;28;20230;-72
2022/10/02 21:26:00;;;;;;;23.70;17.57;;;11.10;99.90;;;;;;10391897;28;20594;-74
2022/10/02 21:31:06;;;;;;;33.80;17.87;;;11.20;99.90;;;;;;10383041;28;20228;-72
2022/10/02 21:36:19;;;;;;;19.97;15.00;;;11.30;99.90;;;;;;10395133;28;20319;-73
2022/10/02 21:41:56;;;;;;;22.37;15.63;;;11.30;99.90;;;;;;10386753;28;20733;-73
2022/10/02 21:47:18;;;;;;;22.83;14.17;;;11.20;99.90;;;;;;10387976;28;20221;-74
2022/10/02 21:52:38;;;;;;;18.77;12.53;;;11.20;99.90;;;;;;10383319;28;20261;-73
2022/10/02 21:58:16;;;;;;;22.93;12.20;;;11.10;99.90;;;;;;10391056;28;20649;-74
2022/10/02 22:03:49;;;;;;;20.77;11.97;;;11.00;99.90;;;;;;10275405;28;20227;-74
2022/10/02 22:09:09;;;;;;;18.57;12.00;;;10.90;99.90;;;;;;10393842;28;20236;-73
2022/10/02 22:14:18;;;;;;;20.13;11.23;;;10.90;99.90;;;;;;10389808;28;20224;-72
2022/10/02 22:19:34;;;;;;;21.77;11.93;;;10.90;99.90;;;;;;10407788;28;20213;-73
2022/10/02 22:25:02;;;;;;;16.07;11.23;;;11.00;99.90;;;;;;10396433;28;20262;-74
2022/10/02 22:30:03;;;;;;;18.00;10.93;;;11.00;99.90;;;;;;10395881;28;20252;-75
2022/10/02 22:35:22;;;;;;;17.50;11.30;;;11.10;99.90;;;;;;10417164;28;20228;-73
2022/10/02 22:40:28;;;;;;;16.23;11.20;;;11.10;99.90;;;;;;10400022;28;20290;-73
2022/10/02 22:45:44;;;;;;;16.73;11.20;;;11.10;99.90;;;;;;10389791;28;20244;-73
2022/10/02 22:51:02;;;;;;;16.20;12.10;;;11.10;99.90;;;;;;10393009;28;20227;-74
2022/10/02 22:56:32;;;;;;;25.33;13.50;;;11.10;99.90;;;;;;10386901;28;20236;-74
2022/10/02 23:01:43;;;;;;;17.43;12.67;;;11.10;99.90;;;;;;10353567;28;20243;-73
2022/10/02 23:06:58;;;;;;;18.60;11.97;;;11.10;99.90;;;;;;10379392;28;20233;-73
2022/10/02 23:12:13;;;;;;;21.07;13.33;;;11.10;99.90;;;;;;10410971;28;20255;-74
2022/10/02 23:17:28;;;;;;;20.80;13.23;;;11.00;99.90;;;;;;10387201;28;20219;-74
2022/10/02 23:22:55;;;;;;;35.60;14.70;;;11.00;99.90;;;;;;10394924;28;20216;-74
2022/10/02 23:27:58;;;;;;;21.30;13.77;;;11.10;99.90;;;;;;10393350;28;20597;-72
2022/10/02 23:33:18;;;;;;;40.07;14.40;;;11.10;99.90;;;;;;10385774;28;20271;-74
2022/10/02 23:38:39;;;;;;;37.77;15.77;;;11.10;99.90;;;;;;10395974;28;20312;-73
2022/10/02 23:44:05;;;;;;;29.60;14.90;;;11.10;99.90;;;;;;10385899;28;20224;-73
2022/10/02 23:49:09;;;;;;;23.20;16.00;;;11.10;99.90;;;;;;10377098;28;20228;-72
2022/10/02 23:54:23;;;;;;;35.93;15.00;;;11.10;99.90;;;;;;10392483;28;20240;-73
2022/10/02 23:59:30;;;;;;;32.23;15.40;;;11.00;99.90;;;;;;10392965;28;20224;-73
